YBHMYBBN

Guest
Details From YBHM - Hamilton I.
To YBBN - Brisbane Intl
Flight Number -
Tags decoded
Created
Modified
Stats Distance 494 nm / 914 km
Max Altitude 0 ft / 0 m
Waypoints 4
Social Downloads 1
Likes 0
Share VATSIM

Download

Looking for another format? Having issues loading an existing format? Contact us
Advertisement - Login to hide

Notes

Requested: YBHM HM CORAL YBBN

Route

YBHM HM CORAL YBBN

ID Type Via Altitude Latitude Longitude Leg Dist Tot Dist Heading (true) Name
O YBHM APT - 0 ft / 0 m -20.35748˚ 148.95164˚ - 0 nm - Hamilton I.
HM NDB - 0 ft / 0 m -20.35694˚ 148.94917˚ 0 nm 0 nm 283° / 283° HAMILTON ISLAND NDB
CORAL FIX - 0 ft / 0 m -26.54778˚ 153.31944˚ 442 nm 443 nm 148° / 146° -
O YBBN APT - 0 ft / 0 m -27.37571˚ 153.12771˚ 50 nm 493 nm 192° / 192° Brisbane Intl

Altitude Profile

Advertisement - Login to hide

Weather


0- 5 10 15 20 25 30 35+ Temperature / ° C

Clouds and Precipitation
Forecast for 2018-05-26 00:00 UTC. Updated 3 hours ago

Ground ~20,000 ft ~40,000 ft Winds

YBHM

Details ICAO YBHM (HTI)
Name Hamilton I.
Region Australia
Timezone Australia/Lindeman (UTC+10.0)
Stats Elevation 14 ft / 4 m (AMSL)
Location -20.357481° 148.951639°
Runways 1
Magnetic Variation 8.150° E

METAR

YBHM 260200Z AUTO 15027KT 9999 // BKN016 OVC021 OVC040 22/19 Q1019

Decode

TAF

TAF YBHM 251718Z 2518/2606 13024KT 9999 -SHRA SCT020 BKN030 INTER 2518/2606 3000 SHRA BKN015

Decode

Departure Runways

ID Width Length Bearing (true) Bearing (mag) Surface Threshold Offset Overrun Length
14 148 ft / 45 m 5,792 ft / 1,765 m 143.04° 134.89° Asphalt 0 ft / 0 m 0 ft / 0 m
32 148 ft / 45 m 5,792 ft / 1,765 m 323.03° 314.88° Asphalt 0 ft / 0 m 0 ft / 0 m

YBBN

Details ICAO YBBN (BNE)
Name Brisbane Intl
Region Australia
Timezone Australia/Brisbane (UTC+10.0)
Stats Elevation 12 ft / 4 m (AMSL)
Location -27.375714° 153.127710°
Runways 2
Magnetic Variation 10.987° E

METAR

YBBN 260200Z 14008KT 9999 SCT035 SCT080 21/12 Q1026 NOSIG

Decode

TAF

TAF YBBN 252321Z 2600/2706 13012KT 9999 SCT035 FM261000 19008KT 9999 SCT030 FM262300 14010KT 9999 SCT035

Decode

Destination Runways

ID Width Length Bearing (true) Bearing (mag) Surface Threshold Offset Overrun Length
01 148 ft / 45 m 11,805 ft / 3,598 m 26.93° 15.94° Asphalt 197 ft / 60 m 0 ft / 0 m
14 98 ft / 30 m 5,787 ft / 1,764 m 145.66° 134.67° Asphalt 197 ft / 60 m 0 ft / 0 m
19 148 ft / 45 m 11,805 ft / 3,598 m 206.92° 195.93° Asphalt 0 ft / 0 m 0 ft / 0 m
32 98 ft / 30 m 5,787 ft / 1,764 m 325.66° 314.67° Asphalt 197 ft / 60 m 0 ft / 0 m

Approach Navaids

Runway Type Ident Frequency Range Bearing (true) Bearing (mag) Slope Elevation
01 Localiser IBA 109.50 MHz 18 nm / 33 km 26.70° 15.71° - 28 ft / 9 m (AMSL)
01 Glidescope IBA 109.50 MHz 10 nm / 19 km 26.92° 15.93° 3.00° 13 ft / 4 m (AMSL)
19 Localiser IBS 110.10 MHz 18 nm / 33 km 206.97° 195.98° - 49 ft / 15 m (AMSL)
19 Glidescope IBS 110.10 MHz 10 nm / 19 km 206.92° 195.93° 3.00° 13 ft / 4 m (AMSL)

Popular Alternatives